Flight Briefing for CPX440

Departure Arrival
Chicago/Rockford International Airport (KRFD)
Click to view FAA NOTAMS
Salt Lake City International Airport (KSLC)
Click to view FAA NOTAMS
Departure Time Arrival Time
N/A N/A
Aircraft Distance
B757-200SF 1031nm
Departure METAR Arrival METAR
KRFD 271154Z 11006KT 10SM SCT250 14/09 A3001 RMK AO2 SLP159 70004 T01440094 10144 20128 56013 $ KSLC 271154Z 19006KT 6SM -RA BR FEW010 BKN030 OVC037 09/08 A2981 RMK AO2 SLP059 CB DSNT NW P0013 60025 70025 T00940083 10161 20094 51010 VISNO NW RNWY
Suggested Route
RFD COTON J128 DBQ ALO FOD DDY NORDK6


View recent IFR Routes data
Notes



Charts and Procedures

Charts for KRFD
No chart available
Charts for KSLC
No chart available

Windy.com Weather Map